createdAt,value
2019-01-21T00:02:08.099Z,87.20
2019-01-21T00:04:38.629Z,87.50
2019-01-21T00:07:09.538Z,87.80
2019-01-21T00:09:40.321Z,87.20
2019-01-21T00:12:11.060Z,87.50
2019-01-21T00:14:41.988Z,87.40
2019-01-21T00:17:12.715Z,86.70
2019-01-21T00:19:43.617Z,88.30
2019-01-21T00:22:14.339Z,88.50
2019-01-21T00:24:45.079Z,88.60
2019-01-21T00:27:15.658Z,89.00
2019-01-21T00:29:46.399Z,88.60
2019-01-21T00:32:17.054Z,88.60
2019-01-21T00:34:47.846Z,88.50
2019-01-21T00:37:18.673Z,89.40
2019-01-21T00:39:49.334Z,89.40
2019-01-21T00:42:19.990Z,89.70
2019-01-21T00:44:50.574Z,89.70
2019-01-21T00:47:21.305Z,89.80
2019-01-21T00:49:52.025Z,89.60
2019-01-21T00:52:22.844Z,89.50
2019-01-21T00:54:53.440Z,88.70
2019-01-21T00:57:24.421Z,89.30
2019-01-21T00:59:55.614Z,89.70
2019-01-21T01:02:27.279Z,89.50
2019-01-21T01:04:57.995Z,89.50
2019-01-21T01:07:28.634Z,89.30
2019-01-21T01:09:59.033Z,89.50
2019-01-21T01:12:29.570Z,89.20
2019-01-21T01:15:00.035Z,89.10
2019-01-21T01:17:33.391Z,89.30
2019-01-21T01:20:03.253Z,89.10
2019-01-21T01:22:34.268Z,89.40
2019-01-21T01:25:05.187Z,89.20
2019-01-21T01:27:35.849Z,89.70
2019-01-21T01:30:07.372Z,89.60
2019-01-21T01:32:38.119Z,89.70
2019-01-21T01:35:09.880Z,90.00
2019-01-21T01:37:41.417Z,90.10
2019-01-21T01:40:14.749Z,90.10
2019-01-21T01:42:45.331Z,89.10
2019-01-21T01:45:22.309Z,89.10
2019-01-21T01:48:02.877Z,88.70
2019-01-21T01:50:33.681Z,88.80
2019-01-21T01:53:04.526Z,88.60
2019-01-21T01:55:35.311Z,89.00
2019-01-21T01:58:09.634Z,88.90
2019-01-21T02:00:40.788Z,88.50
2019-01-21T02:03:11.720Z,88.50
2019-01-21T02:05:42.282Z,88.00
2019-01-21T02:08:14.092Z,88.40
2019-01-21T02:10:45.206Z,88.20
2019-01-21T02:13:15.774Z,88.30
2019-01-21T02:15:46.378Z,88.80
2019-01-21T02:18:17.025Z,88.30
2019-01-21T02:20:51.107Z,88.00
2019-01-21T02:23:24.510Z,87.90
2019-01-21T02:26:01.535Z,88.20
2019-01-21T02:29:04.752Z,88.00
2019-01-21T02:32:11.380Z,87.40
2019-01-21T02:35:19.368Z,86.80
2019-01-21T02:38:22.543Z,86.40
2019-01-21T02:41:20.589Z,86.50
2019-01-21T02:44:29.126Z,86.50
2019-01-21T02:47:33.134Z,86.50
2019-01-21T02:50:29.266Z,86.90
2019-01-21T02:53:36.312Z,86.10
2019-01-21T02:56:43.535Z,84.80
2019-01-21T02:59:52.733Z,85.00
2019-01-21T03:03:09.016Z,84.90
2019-01-21T03:06:14.608Z,84.10
2019-01-21T03:09:22.359Z,84.80
2019-01-21T03:12:10.124Z,84.20
2019-01-21T03:15:18.692Z,84.50
2019-01-21T03:18:26.290Z,85.00
2019-01-21T03:21:34.908Z,86.40
2019-01-21T03:24:41.253Z,87.90
2019-01-21T03:27:43.554Z,88.60
2019-01-21T03:30:40.624Z,89.50
2019-01-21T03:34:00.848Z,89.70
2019-01-21T03:37:11.614Z,89.70
2019-01-21T03:40:32.395Z,89.20
2019-01-21T03:43:58.702Z,87.70
2019-01-21T03:47:11.760Z,87.60
2019-01-21T03:50:37.472Z,87.20
2019-01-21T03:53:45.191Z,87.40
2019-01-21T03:56:31.622Z,87.80
2019-01-21T03:59:52.351Z,86.90
2019-01-21T04:02:52.780Z,86.90
2019-01-21T04:05:32.625Z,85.30
2019-01-21T04:08:15.839Z,85.30
2019-01-21T04:11:39.581Z,85.20
2019-01-21T04:14:53.063Z,84.00
2019-01-21T04:17:59.920Z,83.80
2019-01-21T04:21:23.549Z,84.50
2019-01-21T04:24:33.608Z,83.80
2019-01-21T04:27:14.157Z,83.60
2019-01-21T04:30:32.829Z,84.30
2019-01-21T04:33:33.982Z,84.40
2019-01-21T04:36:41.368Z,84.80
2019-01-21T04:39:38.893Z,83.70
2019-01-21T04:42:30.004Z,84.30
2019-01-21T04:45:54.049Z,84.10
2019-01-21T04:49:09.036Z,84.20
2019-01-21T04:52:03.492Z,83.00
2019-01-21T04:55:15.952Z,82.60
2019-01-21T04:58:36.850Z,82.80
2019-01-21T05:01:39.660Z,83.20
2019-01-21T05:04:37.065Z,83.10
2019-01-21T05:07:53.023Z,83.40
2019-01-21T05:10:56.933Z,83.90
2019-01-21T05:14:11.848Z,83.90
2019-01-21T05:17:32.460Z,84.30
2019-01-21T05:20:53.487Z,84.50
2019-01-21T05:24:11.841Z,84.60
2019-01-21T05:27:32.242Z,85.50
2019-01-21T05:30:33.239Z,85.70
2019-01-21T05:33:36.209Z,85.40
2019-01-21T05:36:56.917Z,85.10
2019-01-21T05:40:09.087Z,84.90
2019-01-21T05:43:16.734Z,85.00
2019-01-21T05:46:30.846Z,85.70
2019-01-21T05:49:30.159Z,85.70
2019-01-21T05:52:33.825Z,85.50
2019-01-21T05:55:57.811Z,85.00
2019-01-21T05:58:53.404Z,85.90
2019-01-21T06:02:03.697Z,87.60
2019-01-21T06:04:56.118Z,88.00
2019-01-21T06:08:03.125Z,88.00
2019-01-21T06:10:56.720Z,88.90
2019-01-21T06:14:11.384Z,89.40
2019-01-21T06:16:56.764Z,89.60
2019-01-21T06:20:08.235Z,90.20
2019-01-21T06:23:13.606Z,90.20
2019-01-21T06:26:03.691Z,90.80
2019-01-21T06:29:08.502Z,91.10
2019-01-21T06:32:08.078Z,90.80
2019-01-21T06:35:04.630Z,90.80
2019-01-21T06:38:16.250Z,90.70
2019-01-21T06:41:28.048Z,90.60
2019-01-21T06:44:35.527Z,90.40
2019-01-21T06:47:50.009Z,90.70
2019-01-21T06:50:48.804Z,90.90
2019-01-21T06:53:58.653Z,90.80
2019-01-21T06:57:02.919Z,91.10
2019-01-21T07:00:05.876Z,90.90
2019-01-21T07:03:14.996Z,90.90
2019-01-21T07:06:25.530Z,90.60
2019-01-21T07:09:41.217Z,89.90
2019-01-21T07:12:51.747Z,89.80
2019-01-21T07:15:51.936Z,90.10
2019-01-21T07:19:03.878Z,90.10
2019-01-21T07:22:16.512Z,90.40
2019-01-21T07:25:13.933Z,90.40
2019-01-21T07:28:29.647Z,90.50
2019-01-21T07:31:15.883Z,90.90
2019-01-21T07:34:09.331Z,91.00
2019-01-21T07:37:24.470Z,90.70
2019-01-21T07:40:36.024Z,90.40
2019-01-21T07:43:42.283Z,90.40
2019-01-21T07:46:56.676Z,90.10
2019-01-21T07:49:58.580Z,90.40
2019-01-21T07:52:58.784Z,90.60
2019-01-21T07:56:25.506Z,90.50
2019-01-21T07:59:41.342Z,90.70
2019-01-21T08:02:54.760Z,90.40
2019-01-21T08:05:47.400Z,91.00
2019-01-21T08:08:35.236Z,91.20
2019-01-21T08:11:41.769Z,91.40
2019-01-21T08:14:43.978Z,91.40
2019-01-21T08:18:10.773Z,91.40
2019-01-21T08:21:10.292Z,91.40
2019-01-21T08:24:33.965Z,91.60
2019-01-21T08:27:31.700Z,91.70
2019-01-21T08:30:33.357Z,91.50
2019-01-21T08:33:40.560Z,91.00
2019-01-21T08:36:52.495Z,91.00
2019-01-21T08:40:04.943Z,90.90
2019-01-21T08:43:02.530Z,91.10
2019-01-21T08:46:21.366Z,91.00
2019-01-21T08:49:51.529Z,91.00
2019-01-21T08:53:12.101Z,91.00
2019-01-21T08:56:36.220Z,91.20
2019-01-21T08:59:34.957Z,91.30
2019-01-21T09:02:35.622Z,91.30
2019-01-21T09:05:30.962Z,91.00
2019-01-21T09:08:51.614Z,91.00
2019-01-21T09:11:59.101Z,91.00
2019-01-21T09:15:22.624Z,91.00
2019-01-21T09:18:06.552Z,90.70
2019-01-21T09:21:04.989Z,90.70
2019-01-21T09:24:05.471Z,90.70
2019-01-21T09:26:49.112Z,90.80
2019-01-21T09:29:50.566Z,90.50
2019-01-21T09:32:43.781Z,90.70
2019-01-21T09:35:32.233Z,90.80
2019-01-21T09:38:50.871Z,91.00
2019-01-21T09:41:50.842Z,91.10
2019-01-21T09:44:43.723Z,90.70
2019-01-21T09:47:12.481Z,90.80
2019-01-21T09:49:43.779Z,90.80
2019-01-21T09:52:17.814Z,90.50
2019-01-21T09:54:49.050Z,90.40
2019-01-21T09:57:25.118Z,90.00
2019-01-21T10:00:00.287Z,90.10
2019-01-21T10:02:47.621Z,89.40
2019-01-21T10:05:19.117Z,90.40
2019-01-21T10:08:29.461Z,90.20
2019-01-21T10:12:05.189Z,90.70
2019-01-21T10:15:19.045Z,90.60
2019-01-21T10:18:15.692Z,90.30
2019-01-21T10:21:29.078Z,90.10
2019-01-21T10:24:26.384Z,90.00
2019-01-21T10:27:44.099Z,90.10
2019-01-21T10:31:08.288Z,90.00
2019-01-21T10:33:59.816Z,90.00
2019-01-21T10:36:54.777Z,89.30
2019-01-21T10:40:08.203Z,88.80
2019-01-21T10:42:49.576Z,89.00
2019-01-21T10:45:50.838Z,89.60
2019-01-21T10:49:02.828Z,89.50
2019-01-21T10:52:19.424Z,89.90
2019-01-21T10:55:16.657Z,89.50
2019-01-21T10:58:11.000Z,89.70
2019-01-21T11:01:08.411Z,90.10
2019-01-21T11:04:03.282Z,90.10
2019-01-21T11:07:08.938Z,90.00
2019-01-21T11:10:02.417Z,88.90
2019-01-21T11:12:52.958Z,89.30
2019-01-21T11:16:22.684Z,88.20
2019-01-21T11:19:34.303Z,88.00
2019-01-21T11:22:17.865Z,88.10
2019-01-21T11:25:37.093Z,87.80
2019-01-21T11:28:54.085Z,87.40
2019-01-21T11:32:13.819Z,87.70
2019-01-21T11:35:19.210Z,87.40
2019-01-21T11:38:16.200Z,88.10
2019-01-21T11:41:27.728Z,87.30
2019-01-21T11:44:42.549Z,87.50
2019-01-21T11:47:25.618Z,87.10
2019-01-21T11:50:25.126Z,87.70
2019-01-21T11:53:21.544Z,88.10
2019-01-21T11:56:30.173Z,87.50
2019-01-21T11:59:22.718Z,87.80
2019-01-21T12:02:19.764Z,87.60
2019-01-21T12:05:16.247Z,87.20
2019-01-21T12:08:35.442Z,88.70
2019-01-21T12:11:31.810Z,88.20
2019-01-21T12:14:57.952Z,89.50
2019-01-21T12:18:04.559Z,89.20
2019-01-21T12:21:14.397Z,88.90
2019-01-21T12:24:21.723Z,88.40
2019-01-21T12:27:24.866Z,87.80
2019-01-21T12:30:41.358Z,88.00
2019-01-21T12:33:43.273Z,89.00
2019-01-21T12:37:18.906Z,87.70
2019-01-21T12:40:45.590Z,88.10
2019-01-21T12:43:43.650Z,87.60
2019-01-21T12:46:50.436Z,87.40
2019-01-21T12:49:58.058Z,87.50
2019-01-21T12:52:52.979Z,88.30
2019-01-21T12:56:00.763Z,88.20
2019-01-21T12:58:57.062Z,89.10
2019-01-21T13:01:51.948Z,88.50
2019-01-21T13:04:47.814Z,88.40
2019-01-21T13:07:46.416Z,87.80
2019-01-21T13:11:06.165Z,88.10
2019-01-21T13:14:18.615Z,88.10
2019-01-21T13:17:12.840Z,87.80
2019-01-21T13:20:06.621Z,87.20
2019-01-21T13:23:17.358Z,88.00
2019-01-21T13:26:20.185Z,87.30
2019-01-21T13:29:28.962Z,87.20
2019-01-21T13:32:47.797Z,87.40
2019-01-21T13:36:08.613Z,88.10
2019-01-21T13:39:17.248Z,87.90
2019-01-21T13:42:08.422Z,87.90
2019-01-21T13:45:19.106Z,88.00
2019-01-21T13:48:45.164Z,88.30
2019-01-21T13:51:57.878Z,87.80
2019-01-21T13:55:04.758Z,87.30
2019-01-21T13:58:00.244Z,87.60
2019-01-21T14:00:53.333Z,88.50
2019-01-21T14:04:10.937Z,88.50
2019-01-21T14:07:29.933Z,87.50
2019-01-21T14:10:29.990Z,87.60
2019-01-21T14:13:47.495Z,88.30
2019-01-21T14:16:52.322Z,88.60
2019-01-21T14:20:04.711Z,88.60
2019-01-21T14:22:59.223Z,88.60
2019-01-21T14:26:06.874Z,89.20
2019-01-21T14:29:12.553Z,88.60
2019-01-21T14:32:29.837Z,89.10
2019-01-21T14:35:29.008Z,88.30
2019-01-21T14:38:52.995Z,89.50
2019-01-21T14:42:19.800Z,90.00
2019-01-21T14:45:43.382Z,90.00
2019-01-21T14:49:05.034Z,88.70
2019-01-21T14:52:25.942Z,89.10
2019-01-21T14:55:21.258Z,88.10
2019-01-21T14:58:38.630Z,88.20
2019-01-21T15:01:45.859Z,89.10
2019-01-21T15:04:50.003Z,89.20
2019-01-21T15:07:33.358Z,89.00
2019-01-21T15:10:36.749Z,90.00
2019-01-21T15:13:27.222Z,90.20
2019-01-21T15:16:39.784Z,90.30
2019-01-21T15:19:28.080Z,90.30
2019-01-21T15:22:38.414Z,89.60
2019-01-21T15:25:32.455Z,89.40
2019-01-21T15:28:37.758Z,90.20
2019-01-21T15:31:51.198Z,90.30
2019-01-21T15:35:20.484Z,90.60
2019-01-21T15:38:42.617Z,90.70
2019-01-21T15:41:51.262Z,91.00
2019-01-21T15:45:00.589Z,90.50
2019-01-21T15:48:12.609Z,91.00
2019-01-21T15:51:22.971Z,91.10
2019-01-21T15:54:22.405Z,91.00
2019-01-21T15:57:40.078Z,90.30
2019-01-21T16:00:57.724Z,90.70
2019-01-21T16:03:58.692Z,91.00
2019-01-21T16:07:19.343Z,91.10
2019-01-21T16:10:42.611Z,91.10
2019-01-21T16:13:49.504Z,91.10
2019-01-21T16:17:09.941Z,91.30
2019-01-21T16:19:47.285Z,91.20
2019-01-21T16:22:56.805Z,91.20
2019-01-21T16:25:41.038Z,91.20
2019-01-21T16:28:42.425Z,91.00
2019-01-21T16:31:56.863Z,91.30
2019-01-21T16:35:33.181Z,90.70
2019-01-21T16:38:49.955Z,90.90
2019-01-21T16:41:57.757Z,91.00
2019-01-21T16:44:28.527Z,91.30
2019-01-21T16:46:59.465Z,91.20
2019-01-21T16:49:30.125Z,90.90
2019-01-21T16:52:00.759Z,90.70
2019-01-21T16:54:32.670Z,90.60
2019-01-21T16:57:03.305Z,90.70
2019-01-21T16:59:34.252Z,91.00
2019-01-21T17:02:05.169Z,90.90
2019-01-21T17:04:36.750Z,91.00
2019-01-21T17:07:07.720Z,91.20
2019-01-21T17:09:38.477Z,91.00
2019-01-21T17:12:09.259Z,90.30
2019-01-21T17:14:39.999Z,91.10
2019-01-21T17:19:41.307Z,91.20
2019-01-21T17:22:11.893Z,91.50
2019-01-21T17:24:42.784Z,91.40
2019-01-21T17:27:13.435Z,91.50
2019-01-21T17:29:44.147Z,91.40
2019-01-21T17:32:14.690Z,91.00
2019-01-21T17:34:45.520Z,91.00
2019-01-21T17:37:16.296Z,90.70
2019-01-21T17:39:47.310Z,90.50
2019-01-21T17:42:17.944Z,90.80
2019-01-21T17:44:48.644Z,90.50
2019-01-21T17:47:19.448Z,90.70
2019-01-21T17:49:50.184Z,91.30
2019-01-21T17:52:21.813Z,91.00
2019-01-21T17:54:53.804Z,91.20
2019-01-21T17:57:24.947Z,91.30
2019-01-21T17:59:55.656Z,91.00
2019-01-21T18:02:27.181Z,91.30
2019-01-21T18:04:59.530Z,90.80
2019-01-21T18:07:30.034Z,91.30
2019-01-21T18:10:00.729Z,90.90
2019-01-21T18:12:32.723Z,91.90
2019-01-21T18:15:04.481Z,91.50
2019-01-21T18:17:35.637Z,91.70
2019-01-21T18:20:09.469Z,91.70
2019-01-21T18:22:40.072Z,91.90
2019-01-21T18:25:11.742Z,91.50
2019-01-21T18:27:42.349Z,91.90
2019-01-21T18:30:16.493Z,91.20
2019-01-21T18:32:47.271Z,91.70
2019-01-21T18:35:19.337Z,91.70
2019-01-21T18:37:50.165Z,92.00
2019-01-21T18:40:22.079Z,92.10
2019-01-21T18:42:52.946Z,92.00
2019-01-21T18:45:26.595Z,91.90
2019-01-21T18:47:57.684Z,91.80
2019-01-21T18:50:28.352Z,91.60
2019-01-21T18:52:58.996Z,91.80
2019-01-21T18:55:29.693Z,91.60
2019-01-21T18:58:00.390Z,91.70
2019-01-21T19:00:32.352Z,91.80
2019-01-21T19:03:03.304Z,91.50
2019-01-21T19:05:34.170Z,91.30
2019-01-21T19:08:05.543Z,91.50
2019-01-21T19:10:36.456Z,91.80
2019-01-21T19:13:07.606Z,91.60
2019-01-21T19:15:38.430Z,91.80
2019-01-21T19:18:09.286Z,91.50
2019-01-21T19:20:39.945Z,91.80
2019-01-21T19:23:10.715Z,91.50
2019-01-21T19:25:41.554Z,91.20
2019-01-21T19:28:12.493Z,91.20
2019-01-21T19:30:43.250Z,91.40
2019-01-21T19:33:14.083Z,91.30
2019-01-21T19:35:44.967Z,91.50
2019-01-21T19:38:15.772Z,91.60
2019-01-21T19:40:46.631Z,91.70
2019-01-21T19:43:17.705Z,91.60
2019-01-21T19:45:48.725Z,91.50
2019-01-21T19:48:19.558Z,91.50
2019-01-21T19:50:50.354Z,91.80
2019-01-21T19:53:21.269Z,91.50
2019-01-21T19:55:53.043Z,91.60
2019-01-21T19:58:23.925Z,91.20
2019-01-21T20:00:56.427Z,91.50
2019-01-21T20:03:33.894Z,91.80
2019-01-21T20:05:59.630Z,91.90
2019-01-21T20:08:30.232Z,92.10
2019-01-21T20:11:02.776Z,92.10
2019-01-21T20:13:33.501Z,91.80
2019-01-21T20:16:04.812Z,91.90
2019-01-21T20:18:35.402Z,91.80
2019-01-21T20:21:06.652Z,91.80
2019-01-21T20:23:37.724Z,91.70
2019-01-21T20:26:08.768Z,91.50
2019-01-21T20:28:39.769Z,92.00
2019-01-21T20:31:10.779Z,91.80
2019-01-21T20:33:41.896Z,91.80
2019-01-21T20:36:12.485Z,91.90
2019-01-21T20:38:44.125Z,92.00
2019-01-21T20:41:15.253Z,91.70
2019-01-21T20:43:46.699Z,90.90
2019-01-21T20:46:17.704Z,91.90
2019-01-21T20:48:48.735Z,92.20
2019-01-21T20:51:19.463Z,91.90
2019-01-21T20:53:50.399Z,92.00
2019-01-21T20:56:21.305Z,92.10
2019-01-21T20:58:52.454Z,92.20
2019-01-21T21:01:25.178Z,92.30
2019-01-21T21:03:55.843Z,91.80
2019-01-21T21:06:26.983Z,91.80
2019-01-21T21:08:57.630Z,92.00
2019-01-21T21:11:28.540Z,91.90
2019-01-21T21:13:59.195Z,91.60
2019-01-21T21:16:29.800Z,91.70
2019-01-21T21:19:00.769Z,91.70
2019-01-21T21:21:31.749Z,91.70
2019-01-21T21:24:03.079Z,92.00
2019-01-21T21:26:34.120Z,91.80
2019-01-21T21:29:06.212Z,92.00
2019-01-21T21:31:37.304Z,92.10
2019-01-21T21:34:08.818Z,92.00
2019-01-21T21:36:39.707Z,91.60
2019-01-21T21:39:10.824Z,91.50
2019-01-21T21:41:42.101Z,91.70
2019-01-21T21:44:13.121Z,91.50
2019-01-21T21:46:46.117Z,91.70
2019-01-21T21:49:17.299Z,91.50
2019-01-21T21:51:48.438Z,91.80
2019-01-21T21:54:19.503Z,91.70
2019-01-21T21:56:50.600Z,91.50
2019-01-21T21:59:21.594Z,91.40
2019-01-21T22:01:52.497Z,91.50
2019-01-21T22:04:23.361Z,91.50
2019-01-21T22:06:54.587Z,91.40
2019-01-21T22:09:25.946Z,91.10
2019-01-21T22:11:56.872Z,91.10
2019-01-21T22:14:27.950Z,90.90
2019-01-21T22:16:58.929Z,91.10
2019-01-21T22:19:30.094Z,91.80
2019-01-21T22:22:00.931Z,91.50
2019-01-21T22:24:32.140Z,91.10
2019-01-21T22:27:03.086Z,90.20
2019-01-21T22:29:33.594Z,90.50
2019-01-21T22:32:04.154Z,91.10
2019-01-21T22:34:34.989Z,91.10
2019-01-21T22:37:06.563Z,91.30
2019-01-21T22:39:37.165Z,91.60
2019-01-21T22:42:08.071Z,91.50
2019-01-21T22:44:39.905Z,91.50
2019-01-21T22:47:10.843Z,91.70
2019-01-21T22:49:41.507Z,91.60
2019-01-21T22:52:12.184Z,91.40
2019-01-21T22:54:42.690Z,91.10
2019-01-21T22:57:13.216Z,91.50
2019-01-21T22:59:43.825Z,91.50
2019-01-21T23:02:14.332Z,91.60
2019-01-21T23:04:45.298Z,91.60
2019-01-21T23:07:16.178Z,91.90
2019-01-21T23:09:46.873Z,91.80
2019-01-21T23:12:17.299Z,91.70
2019-01-21T23:14:48.280Z,91.50
2019-01-21T23:17:18.963Z,91.60
2019-01-21T23:19:49.684Z,91.10
2019-01-21T23:22:20.212Z,91.40
2019-01-21T23:24:50.740Z,91.70
2019-01-21T23:27:21.440Z,91.60
2019-01-21T23:29:52.047Z,91.30
2019-01-21T23:32:22.776Z,91.90
2019-01-21T23:34:53.463Z,91.50
2019-01-21T23:37:24.094Z,91.20
2019-01-21T23:39:54.993Z,91.00
2019-01-21T23:42:26.281Z,91.20
2019-01-21T23:44:57.151Z,91.20
2019-01-21T23:47:27.879Z,91.00
2019-01-21T23:49:58.342Z,90.80
2019-01-21T23:52:28.943Z,91.00
2019-01-21T23:54:59.886Z,91.00
2019-01-21T23:57:30.473Z,91.00
